Terminal Aerodrome Forecast
Issued by NWS

Current Version | Previous Version | Graphics & Text | Print | Product List | Glossary On
Versions: 1 2 3 4 5 6 7 8 9 10 11 12 13 14 15 16 17 18 19 20 21 22 23 24 25 26 27
394
FTUS41 KRLX 170301 AAA
TAFCKB
TAF AMD
KCKB 170301Z 1703/1724 00000KT 3/4SM BR BKN028 BKN045 OVC090
      TEMPO 1703/1706 4SM BR
     FM170700 VRB03KT 4SM -SHRA OVC030
     FM170900 17004KT 2SM -SHRA OVC014
     FM171100 18004KT 3SM -SHRA OVC008
     FM171800 21010G17KT 5SM -SHRA OVC011
     FM172100 22009G15KT 5SM -SHRA OVC013=

USA.gov is the U.S. government's official web portal to all federal, state and local government web resources and services.